sensor_id;sensor_type;location;lat;lon;timestamp;P1;durP1;ratioP1;P2;durP2;ratioP2
22610;SDS011;11472;45.494;12.142;2022-07-24T00:00:00;9.90;;;4.20;;
22610;SDS011;11472;45.494;12.142;2022-07-24T00:01:00;9.90;;;4.20;;
22610;SDS011;11472;45.494;12.142;2022-07-24T00:02:00;9.90;;;4.20;;
22610;SDS011;11472;45.494;12.142;2022-07-24T00:03:00;9.90;;;4.20;;
22610;SDS011;11472;45.494;12.142;2022-07-24T00:04:01;9.90;;;4.20;;
22610;SDS011;11472;45.494;12.142;2022-07-24T00:05:01;9.90;;;4.20;;
22610;SDS011;11472;45.494;12.142;2022-07-24T00:06:01;9.90;;;4.20;;
22610;SDS011;11472;45.494;12.142;2022-07-24T00:07:00;9.90;;;4.20;;
22610;SDS011;11472;45.494;12.142;2022-07-24T00:08:02;9.90;;;4.20;;
22610;SDS011;11472;45.494;12.142;2022-07-24T00:09:01;9.90;;;4.20;;
22610;SDS011;11472;45.494;12.142;2022-07-24T00:10:02;9.90;;;4.20;;
22610;SDS011;11472;45.494;12.142;2022-07-24T00:11:00;9.90;;;4.20;;
22610;SDS011;11472;45.494;12.142;2022-07-24T00:12:00;9.90;;;4.20;;
22610;SDS011;11472;45.494;12.142;2022-07-24T00:13:00;9.90;;;4.20;;
22610;SDS011;11472;45.494;12.142;2022-07-24T00:14:00;6.40;;;4.00;;
22610;SDS011;11472;45.494;12.142;2022-07-24T00:15:00;6.40;;;4.00;;
22610;SDS011;11472;45.494;12.142;2022-07-24T00:16:00;6.40;;;4.00;;
22610;SDS011;11472;45.494;12.142;2022-07-24T00:17:00;6.40;;;4.00;;
22610;SDS011;11472;45.494;12.142;2022-07-24T00:18:00;6.40;;;4.00;;
22610;SDS011;11472;45.494;12.142;2022-07-24T00:19:01;6.40;;;4.00;;
22610;SDS011;11472;45.494;12.142;2022-07-24T00:20:00;6.40;;;4.00;;
22610;SDS011;11472;45.494;12.142;2022-07-24T00:21:00;6.40;;;4.00;;
22610;SDS011;11472;45.494;12.142;2022-07-24T00:22:02;6.40;;;4.00;;
22610;SDS011;11472;45.494;12.142;2022-07-24T00:23:00;6.40;;;4.00;;
22610;SDS011;11472;45.494;12.142;2022-07-24T00:24:00;6.40;;;4.00;;
22610;SDS011;11472;45.494;12.142;2022-07-24T00:25:01;6.40;;;4.00;;
22610;SDS011;11472;45.494;12.142;2022-07-24T00:26:00;6.40;;;4.00;;
22610;SDS011;11472;45.494;12.142;2022-07-24T00:27:00;6.40;;;4.00;;
22610;SDS011;11472;45.494;12.142;2022-07-24T00:28:00;6.40;;;4.00;;
22610;SDS011;11472;45.494;12.142;2022-07-24T00:29:01;5.60;;;4.00;;
22610;SDS011;11472;45.494;12.142;2022-07-24T00:30:00;5.60;;;4.00;;
22610;SDS011;11472;45.494;12.142;2022-07-24T00:31:00;5.60;;;4.00;;
22610;SDS011;11472;45.494;12.142;2022-07-24T00:32:00;5.60;;;4.00;;
22610;SDS011;11472;45.494;12.142;2022-07-24T00:33:00;5.60;;;4.00;;
22610;SDS011;11472;45.494;12.142;2022-07-24T00:34:00;5.60;;;4.00;;
22610;SDS011;11472;45.494;12.142;2022-07-24T00:35:00;5.60;;;4.00;;
22610;SDS011;11472;45.494;12.142;2022-07-24T00:36:00;5.60;;;4.00;;
22610;SDS011;11472;45.494;12.142;2022-07-24T00:37:00;5.60;;;4.00;;
22610;SDS011;11472;45.494;12.142;2022-07-24T00:38:00;5.60;;;4.00;;
22610;SDS011;11472;45.494;12.142;2022-07-24T00:39:01;5.60;;;4.00;;
22610;SDS011;11472;45.494;12.142;2022-07-24T00:40:00;5.60;;;4.00;;
22610;SDS011;11472;45.494;12.142;2022-07-24T00:41:00;5.60;;;4.00;;
22610;SDS011;11472;45.494;12.142;2022-07-24T00:42:00;5.60;;;4.00;;
22610;SDS011;11472;45.494;12.142;2022-07-24T00:43:01;5.60;;;4.00;;
22610;SDS011;11472;45.494;12.142;2022-07-24T00:45:00;5.70;;;3.90;;
22610;SDS011;11472;45.494;12.142;2022-07-24T00:46:00;5.70;;;3.90;;
22610;SDS011;11472;45.494;12.142;2022-07-24T00:47:00;5.70;;;3.90;;
22610;SDS011;11472;45.494;12.142;2022-07-24T00:48:00;5.70;;;3.90;;
22610;SDS011;11472;45.494;12.142;2022-07-24T00:49:02;5.70;;;3.90;;
22610;SDS011;11472;45.494;12.142;2022-07-24T00:50:02;5.70;;;3.90;;
22610;SDS011;11472;45.494;12.142;2022-07-24T00:51:00;5.70;;;3.90;;
22610;SDS011;11472;45.494;12.142;2022-07-24T00:52:00;5.70;;;3.90;;
22610;SDS011;11472;45.494;12.142;2022-07-24T00:53:00;5.70;;;3.90;;
22610;SDS011;11472;45.494;12.142;2022-07-24T00:54:06;5.70;;;3.90;;
22610;SDS011;11472;45.494;12.142;2022-07-24T00:55:00;5.70;;;3.90;;
22610;SDS011;11472;45.494;12.142;2022-07-24T00:56:00;5.70;;;3.90;;
22610;SDS011;11472;45.494;12.142;2022-07-24T00:57:00;5.70;;;3.90;;
22610;SDS011;11472;45.494;12.142;2022-07-24T00:58:01;5.70;;;3.90;;
22610;SDS011;11472;45.494;12.142;2022-07-24T00:59:01;9.30;;;5.30;;
22610;SDS011;11472;45.494;12.142;2022-07-24T01:00:00;9.30;;;5.30;;
22610;SDS011;11472;45.494;12.142;2022-07-24T01:01:00;9.30;;;5.30;;
22610;SDS011;11472;45.494;12.142;2022-07-24T01:02:00;9.30;;;5.30;;
22610;SDS011;11472;45.494;12.142;2022-07-24T01:03:00;9.30;;;5.30;;
22610;SDS011;11472;45.494;12.142;2022-07-24T01:04:01;9.30;;;5.30;;
22610;SDS011;11472;45.494;12.142;2022-07-24T01:05:00;9.30;;;5.30;;
22610;SDS011;11472;45.494;12.142;2022-07-24T01:06:00;9.30;;;5.30;;
22610;SDS011;11472;45.494;12.142;2022-07-24T01:07:00;9.30;;;5.30;;
22610;SDS011;11472;45.494;12.142;2022-07-24T01:08:01;9.30;;;5.30;;
22610;SDS011;11472;45.494;12.142;2022-07-24T01:09:01;9.30;;;5.30;;
22610;SDS011;11472;45.494;12.142;2022-07-24T01:10:00;9.30;;;5.30;;
22610;SDS011;11472;45.494;12.142;2022-07-24T01:11:02;9.30;;;5.30;;
22610;SDS011;11472;45.494;12.142;2022-07-24T01:12:01;9.30;;;5.30;;
22610;SDS011;11472;45.494;12.142;2022-07-24T01:13:00;9.30;;;5.30;;
22610;SDS011;11472;45.494;12.142;2022-07-24T01:14:00;10.40;;;5.00;;
22610;SDS011;11472;45.494;12.142;2022-07-24T01:15:00;10.40;;;5.00;;
22610;SDS011;11472;45.494;12.142;2022-07-24T01:16:00;10.40;;;5.00;;
22610;SDS011;11472;45.494;12.142;2022-07-24T01:17:01;10.40;;;5.00;;
22610;SDS011;11472;45.494;12.142;2022-07-24T01:18:01;10.40;;;5.00;;
22610;SDS011;11472;45.494;12.142;2022-07-24T01:19:00;10.40;;;5.00;;
22610;SDS011;11472;45.494;12.142;2022-07-24T01:20:00;10.40;;;5.00;;
22610;SDS011;11472;45.494;12.142;2022-07-24T01:21:00;10.40;;;5.00;;
22610;SDS011;11472;45.494;12.142;2022-07-24T01:22:00;10.40;;;5.00;;
22610;SDS011;11472;45.494;12.142;2022-07-24T01:23:00;10.40;;;5.00;;
22610;SDS011;11472;45.494;12.142;2022-07-24T01:24:00;10.40;;;5.00;;
22610;SDS011;11472;45.494;12.142;2022-07-24T01:25:00;10.40;;;5.00;;
22610;SDS011;11472;45.494;12.142;2022-07-24T01:26:01;10.40;;;5.00;;
22610;SDS011;11472;45.494;12.142;2022-07-24T01:27:01;10.40;;;5.00;;
22610;SDS011;11472;45.494;12.142;2022-07-24T01:28:00;10.40;;;5.00;;
22610;SDS011;11472;45.494;12.142;2022-07-24T01:29:00;6.10;;;3.80;;
22610;SDS011;11472;45.494;12.142;2022-07-24T01:30:00;6.10;;;3.80;;
22610;SDS011;11472;45.494;12.142;2022-07-24T01:31:00;6.10;;;3.80;;
22610;SDS011;11472;45.494;12.142;2022-07-24T01:32:00;6.10;;;3.80;;
22610;SDS011;11472;45.494;12.142;2022-07-24T01:33:00;6.10;;;3.80;;
22610;SDS011;11472;45.494;12.142;2022-07-24T01:34:00;6.10;;;3.80;;
22610;SDS011;11472;45.494;12.142;2022-07-24T01:35:00;6.10;;;3.80;;
22610;SDS011;11472;45.494;12.142;2022-07-24T01:36:00;6.10;;;3.80;;
22610;SDS011;11472;45.494;12.142;2022-07-24T01:37:00;6.10;;;3.80;;
22610;SDS011;11472;45.494;12.142;2022-07-24T01:38:00;6.10;;;3.80;;
22610;SDS011;11472;45.494;12.142;2022-07-24T01:39:03;6.10;;;3.80;;
22610;SDS011;11472;45.494;12.142;2022-07-24T01:40:00;6.10;;;3.80;;
22610;SDS011;11472;45.494;12.142;2022-07-24T01:41:00;6.10;;;3.80;;
22610;SDS011;11472;45.494;12.142;2022-07-24T01:42:00;6.10;;;3.80;;
22610;SDS011;11472;45.494;12.142;2022-07-24T01:43:01;6.10;;;3.80;;
22610;SDS011;11472;45.494;12.142;2022-07-24T01:44:00;8.00;;;4.40;;
22610;SDS011;11472;45.494;12.142;2022-07-24T01:45:00;8.00;;;4.40;;
22610;SDS011;11472;45.494;12.142;2022-07-24T01:46:01;8.00;;;4.40;;
22610;SDS011;11472;45.494;12.142;2022-07-24T01:47:00;8.00;;;4.40;;
22610;SDS011;11472;45.494;12.142;2022-07-24T01:48:00;8.00;;;4.40;;
22610;SDS011;11472;45.494;12.142;2022-07-24T01:49:00;8.00;;;4.40;;
22610;SDS011;11472;45.494;12.142;2022-07-24T01:50:00;8.00;;;4.40;;
22610;SDS011;11472;45.494;12.142;2022-07-24T01:51:00;8.00;;;4.40;;
22610;SDS011;11472;45.494;12.142;2022-07-24T01:52:00;8.00;;;4.40;;
22610;SDS011;11472;45.494;12.142;2022-07-24T01:53:02;8.00;;;4.40;;
22610;SDS011;11472;45.494;12.142;2022-07-24T01:54:02;8.00;;;4.40;;
22610;SDS011;11472;45.494;12.142;2022-07-24T01:55:00;8.00;;;4.40;;
22610;SDS011;11472;45.494;12.142;2022-07-24T01:56:00;8.00;;;4.40;;
22610;SDS011;11472;45.494;12.142;2022-07-24T01:57:00;8.00;;;4.40;;
22610;SDS011;11472;45.494;12.142;2022-07-24T01:58:00;8.00;;;4.40;;
22610;SDS011;11472;45.494;12.142;2022-07-24T01:59:00;10.00;;;6.20;;
22610;SDS011;11472;45.494;12.142;2022-07-24T02:00:00;10.00;;;6.20;;
22610;SDS011;11472;45.494;12.142;2022-07-24T02:01:00;10.00;;;6.20;;
22610;SDS011;11472;45.494;12.142;2022-07-24T02:02:00;10.00;;;6.20;;
22610;SDS011;11472;45.494;12.142;2022-07-24T02:03:00;10.00;;;6.20;;
22610;SDS011;11472;45.494;12.142;2022-07-24T02:04:00;10.00;;;6.20;;
22610;SDS011;11472;45.494;12.142;2022-07-24T02:05:00;10.00;;;6.20;;
22610;SDS011;11472;45.494;12.142;2022-07-24T02:06:00;10.00;;;6.20;;
22610;SDS011;11472;45.494;12.142;2022-07-24T02:07:00;10.00;;;6.20;;
22610;SDS011;11472;45.494;12.142;2022-07-24T02:08:00;10.00;;;6.20;;
22610;SDS011;11472;45.494;12.142;2022-07-24T02:09:01;10.00;;;6.20;;
22610;SDS011;11472;45.494;12.142;2022-07-24T02:10:00;10.00;;;6.20;;
22610;SDS011;11472;45.494;12.142;2022-07-24T02:11:00;10.00;;;6.20;;
22610;SDS011;11472;45.494;12.142;2022-07-24T02:12:00;10.00;;;6.20;;
22610;SDS011;11472;45.494;12.142;2022-07-24T02:13:00;10.00;;;6.20;;
22610;SDS011;11472;45.494;12.142;2022-07-24T02:14:00;7.80;;;4.60;;
22610;SDS011;11472;45.494;12.142;2022-07-24T02:15:00;7.80;;;4.60;;
22610;SDS011;11472;45.494;12.142;2022-07-24T02:16:00;7.80;;;4.60;;
22610;SDS011;11472;45.494;12.142;2022-07-24T02:17:00;7.80;;;4.60;;
22610;SDS011;11472;45.494;12.142;2022-07-24T02:18:02;7.80;;;4.60;;
22610;SDS011;11472;45.494;12.142;2022-07-24T02:19:01;7.80;;;4.60;;
22610;SDS011;11472;45.494;12.142;2022-07-24T02:20:00;7.80;;;4.60;;
22610;SDS011;11472;45.494;12.142;2022-07-24T02:21:00;7.80;;;4.60;;
22610;SDS011;11472;45.494;12.142;2022-07-24T02:22:00;7.80;;;4.60;;
22610;SDS011;11472;45.494;12.142;2022-07-24T02:23:00;7.80;;;4.60;;
22610;SDS011;11472;45.494;12.142;2022-07-24T02:24:00;7.80;;;4.60;;
22610;SDS011;11472;45.494;12.142;2022-07-24T02:25:00;7.80;;;4.60;;
22610;SDS011;11472;45.494;12.142;2022-07-24T02:26:00;7.80;;;4.60;;
22610;SDS011;11472;45.494;12.142;2022-07-24T02:27:03;7.80;;;4.60;;
22610;SDS011;11472;45.494;12.142;2022-07-24T02:28:00;7.80;;;4.60;;
22610;SDS011;11472;45.494;12.142;2022-07-24T02:29:00;6.30;;;4.10;;
22610;SDS011;11472;45.494;12.142;2022-07-24T02:30:01;6.30;;;4.10;;
22610;SDS011;11472;45.494;12.142;2022-07-24T02:31:00;6.30;;;4.10;;
22610;SDS011;11472;45.494;12.142;2022-07-24T02:32:00;6.30;;;4.10;;
22610;SDS011;11472;45.494;12.142;2022-07-24T02:33:00;6.30;;;4.10;;
22610;SDS011;11472;45.494;12.142;2022-07-24T02:34:00;6.30;;;4.10;;
22610;SDS011;11472;45.494;12.142;2022-07-24T02:35:06;6.30;;;4.10;;
22610;SDS011;11472;45.494;12.142;2022-07-24T02:36:00;6.30;;;4.10;;
22610;SDS011;11472;45.494;12.142;2022-07-24T02:37:00;6.30;;;4.10;;
22610;SDS011;11472;45.494;12.142;2022-07-24T02:38:00;6.30;;;4.10;;
22610;SDS011;11472;45.494;12.142;2022-07-24T02:39:00;6.30;;;4.10;;
22610;SDS011;11472;45.494;12.142;2022-07-24T02:40:00;6.30;;;4.10;;
22610;SDS011;11472;45.494;12.142;2022-07-24T02:41:00;6.30;;;4.10;;
22610;SDS011;11472;45.494;12.142;2022-07-24T02:42:00;6.30;;;4.10;;
22610;SDS011;11472;45.494;12.142;2022-07-24T02:43:00;6.30;;;4.10;;
22610;SDS011;11472;45.494;12.142;2022-07-24T02:44:00;7.60;;;4.80;;
22610;SDS011;11472;45.494;12.142;2022-07-24T02:45:00;7.60;;;4.80;;
22610;SDS011;11472;45.494;12.142;2022-07-24T02:46:01;7.60;;;4.80;;
22610;SDS011;11472;45.494;12.142;2022-07-24T02:47:00;7.60;;;4.80;;
22610;SDS011;11472;45.494;12.142;2022-07-24T02:48:00;7.60;;;4.80;;
22610;SDS011;11472;45.494;12.142;2022-07-24T02:49:00;7.60;;;4.80;;
22610;SDS011;11472;45.494;12.142;2022-07-24T02:50:00;7.60;;;4.80;;
22610;SDS011;11472;45.494;12.142;2022-07-24T02:51:00;7.60;;;4.80;;
22610;SDS011;11472;45.494;12.142;2022-07-24T02:52:00;7.60;;;4.80;;
22610;SDS011;11472;45.494;12.142;2022-07-24T02:53:00;7.60;;;4.80;;
22610;SDS011;11472;45.494;12.142;2022-07-24T02:54:00;7.60;;;4.80;;
22610;SDS011;11472;45.494;12.142;2022-07-24T02:55:00;7.60;;;4.80;;
22610;SDS011;11472;45.494;12.142;2022-07-24T02:56:00;7.60;;;4.80;;
22610;SDS011;11472;45.494;12.142;2022-07-24T02:57:00;7.60;;;4.80;;
22610;SDS011;11472;45.494;12.142;2022-07-24T02:58:00;7.60;;;4.80;;
22610;SDS011;11472;45.494;12.142;2022-07-24T02:59:00;6.40;;;4.60;;
22610;SDS011;11472;45.494;12.142;2022-07-24T03:00:01;6.40;;;4.60;;
22610;SDS011;11472;45.494;12.142;2022-07-24T03:01:00;6.40;;;4.60;;
22610;SDS011;11472;45.494;12.142;2022-07-24T03:02:00;6.40;;;4.60;;
22610;SDS011;11472;45.494;12.142;2022-07-24T03:03:00;6.40;;;4.60;;
22610;SDS011;11472;45.494;12.142;2022-07-24T03:04:00;6.40;;;4.60;;
22610;SDS011;11472;45.494;12.142;2022-07-24T03:05:01;6.40;;;4.60;;
22610;SDS011;11472;45.494;12.142;2022-07-24T03:06:00;6.40;;;4.60;;
22610;SDS011;11472;45.494;12.142;2022-07-24T03:07:00;6.40;;;4.60;;
22610;SDS011;11472;45.494;12.142;2022-07-24T03:08:00;6.40;;;4.60;;
22610;SDS011;11472;45.494;12.142;2022-07-24T03:09:01;6.40;;;4.60;;
22610;SDS011;11472;45.494;12.142;2022-07-24T03:10:03;6.40;;;4.60;;
22610;SDS011;11472;45.494;12.142;2022-07-24T03:11:00;6.40;;;4.60;;
22610;SDS011;11472;45.494;12.142;2022-07-24T03:12:00;6.40;;;4.60;;
22610;SDS011;11472;45.494;12.142;2022-07-24T03:13:00;6.40;;;4.60;;
22610;SDS011;11472;45.494;12.142;2022-07-24T03:14:00;4.90;;;4.40;;
22610;SDS011;11472;45.494;12.142;2022-07-24T03:15:01;4.90;;;4.40;;
22610;SDS011;11472;45.494;12.142;2022-07-24T03:16:00;4.90;;;4.40;;
22610;SDS011;11472;45.494;12.142;2022-07-24T03:17:00;4.90;;;4.40;;
22610;SDS011;11472;45.494;12.142;2022-07-24T03:18:00;4.90;;;4.40;;
22610;SDS011;11472;45.494;12.142;2022-07-24T03:19:00;4.90;;;4.40;;
22610;SDS011;11472;45.494;12.142;2022-07-24T03:20:00;4.90;;;4.40;;
22610;SDS011;11472;45.494;12.142;2022-07-24T03:21:00;4.90;;;4.40;;
22610;SDS011;11472;45.494;12.142;2022-07-24T03:22:00;4.90;;;4.40;;
22610;SDS011;11472;45.494;12.142;2022-07-24T03:23:00;4.90;;;4.40;;
22610;SDS011;11472;45.494;12.142;2022-07-24T03:24:00;4.90;;;4.40;;
22610;SDS011;11472;45.494;12.142;2022-07-24T03:25:01;4.90;;;4.40;;
22610;SDS011;11472;45.494;12.142;2022-07-24T03:26:00;4.90;;;4.40;;
22610;SDS011;11472;45.494;12.142;2022-07-24T03:27:01;4.90;;;4.40;;
22610;SDS011;11472;45.494;12.142;2022-07-24T03:28:01;4.90;;;4.40;;
22610;SDS011;11472;45.494;12.142;2022-07-24T03:29:00;5.10;;;3.80;;
22610;SDS011;11472;45.494;12.142;2022-07-24T03:30:00;5.10;;;3.80;;
22610;SDS011;11472;45.494;12.142;2022-07-24T03:31:00;5.10;;;3.80;;
22610;SDS011;11472;45.494;12.142;2022-07-24T03:32:00;5.10;;;3.80;;
22610;SDS011;11472;45.494;12.142;2022-07-24T03:33:00;5.10;;;3.80;;
22610;SDS011;11472;45.494;12.142;2022-07-24T03:34:01;5.10;;;3.80;;
22610;SDS011;11472;45.494;12.142;2022-07-24T03:35:00;5.10;;;3.80;;
22610;SDS011;11472;45.494;12.142;2022-07-24T03:36:00;5.10;;;3.80;;
22610;SDS011;11472;45.494;12.142;2022-07-24T03:37:00;5.10;;;3.80;;
22610;SDS011;11472;45.494;12.142;2022-07-24T03:38:00;5.10;;;3.80;;
22610;SDS011;11472;45.494;12.142;2022-07-24T03:39:00;5.10;;;3.80;;
22610;SDS011;11472;45.494;12.142;2022-07-24T03:40:00;5.10;;;3.80;;
22610;SDS011;11472;45.494;12.142;2022-07-24T03:41:00;5.10;;;3.80;;
22610;SDS011;11472;45.494;12.142;2022-07-24T03:42:00;5.10;;;3.80;;
22610;SDS011;11472;45.494;12.142;2022-07-24T03:43:02;5.10;;;3.80;;
22610;SDS011;11472;45.494;12.142;2022-07-24T03:44:00;6.20;;;4.50;;
22610;SDS011;11472;45.494;12.142;2022-07-24T03:45:00;6.20;;;4.50;;
22610;SDS011;11472;45.494;12.142;2022-07-24T03:46:00;6.20;;;4.50;;
22610;SDS011;11472;45.494;12.142;2022-07-24T03:47:00;6.20;;;4.50;;
22610;SDS011;11472;45.494;12.142;2022-07-24T03:48:00;6.20;;;4.50;;
22610;SDS011;11472;45.494;12.142;2022-07-24T03:49:00;6.20;;;4.50;;
22610;SDS011;11472;45.494;12.142;2022-07-24T03:50:00;6.20;;;4.50;;
22610;SDS011;11472;45.494;12.142;2022-07-24T03:51:00;6.20;;;4.50;;
22610;SDS011;11472;45.494;12.142;2022-07-24T03:52:00;6.20;;;4.50;;
22610;SDS011;11472;45.494;12.142;2022-07-24T03:53:00;6.20;;;4.50;;
22610;SDS011;11472;45.494;12.142;2022-07-24T03:54:02;6.20;;;4.50;;
22610;SDS011;11472;45.494;12.142;2022-07-24T03:55:00;6.20;;;4.50;;
22610;SDS011;11472;45.494;12.142;2022-07-24T03:56:04;6.20;;;4.50;;
22610;SDS011;11472;45.494;12.142;2022-07-24T03:57:02;6.20;;;4.50;;
22610;SDS011;11472;45.494;12.142;2022-07-24T03:58:00;6.20;;;4.50;;
22610;SDS011;11472;45.494;12.142;2022-07-24T03:59:00;6.50;;;4.60;;
22610;SDS011;11472;45.494;12.142;2022-07-24T04:00:00;6.50;;;4.60;;
22610;SDS011;11472;45.494;12.142;2022-07-24T04:01:00;6.50;;;4.60;;
22610;SDS011;11472;45.494;12.142;2022-07-24T04:02:00;6.50;;;4.60;;
22610;SDS011;11472;45.494;12.142;2022-07-24T04:03:00;6.50;;;4.60;;
22610;SDS011;11472;45.494;12.142;2022-07-24T04:04:04;6.50;;;4.60;;
22610;SDS011;11472;45.494;12.142;2022-07-24T04:05:00;6.50;;;4.60;;
22610;SDS011;11472;45.494;12.142;2022-07-24T04:06:02;6.50;;;4.60;;
22610;SDS011;11472;45.494;12.142;2022-07-24T04:07:00;6.50;;;4.60;;
22610;SDS011;11472;45.494;12.142;2022-07-24T04:08:00;6.50;;;4.60;;
22610;SDS011;11472;45.494;12.142;2022-07-24T04:09:01;6.50;;;4.60;;
22610;SDS011;11472;45.494;12.142;2022-07-24T04:10:00;6.50;;;4.60;;
22610;SDS011;11472;45.494;12.142;2022-07-24T04:11:00;6.50;;;4.60;;
22610;SDS011;11472;45.494;12.142;2022-07-24T04:12:00;6.50;;;4.60;;
22610;SDS011;11472;45.494;12.142;2022-07-24T04:13:00;6.50;;;4.60;;
22610;SDS011;11472;45.494;12.142;2022-07-24T04:14:00;5.10;;;3.70;;
22610;SDS011;11472;45.494;12.142;2022-07-24T04:15:01;5.10;;;3.70;;
22610;SDS011;11472;45.494;12.142;2022-07-24T04:16:00;5.10;;;3.70;;
22610;SDS011;11472;45.494;12.142;2022-07-24T04:17:00;5.10;;;3.70;;
22610;SDS011;11472;45.494;12.142;2022-07-24T04:18:00;5.10;;;3.70;;
22610;SDS011;11472;45.494;12.142;2022-07-24T04:19:05;5.10;;;3.70;;
22610;SDS011;11472;45.494;12.142;2022-07-24T04:20:01;5.10;;;3.70;;
22610;SDS011;11472;45.494;12.142;2022-07-24T04:21:00;5.10;;;3.70;;
22610;SDS011;11472;45.494;12.142;2022-07-24T04:22:00;5.10;;;3.70;;
22610;SDS011;11472;45.494;12.142;2022-07-24T04:23:00;5.10;;;3.70;;
22610;SDS011;11472;45.494;12.142;2022-07-24T04:24:00;5.10;;;3.70;;
22610;SDS011;11472;45.494;12.142;2022-07-24T04:25:00;5.10;;;3.70;;
22610;SDS011;11472;45.494;12.142;2022-07-24T04:26:00;5.10;;;3.70;;
22610;SDS011;11472;45.494;12.142;2022-07-24T04:27:00;5.10;;;3.70;;
22610;SDS011;11472;45.494;12.142;2022-07-24T04:28:02;5.10;;;3.70;;
22610;SDS011;11472;45.494;12.142;2022-07-24T04:29:00;5.10;;;3.90;;
22610;SDS011;11472;45.494;12.142;2022-07-24T04:30:01;5.10;;;3.90;;
22610;SDS011;11472;45.494;12.142;2022-07-24T04:31:00;5.10;;;3.90;;
22610;SDS011;11472;45.494;12.142;2022-07-24T04:32:00;5.10;;;3.90;;
22610;SDS011;11472;45.494;12.142;2022-07-24T04:33:00;5.10;;;3.90;;
22610;SDS011;11472;45.494;12.142;2022-07-24T04:34:00;5.10;;;3.90;;
22610;SDS011;11472;45.494;12.142;2022-07-24T04:35:00;5.10;;;3.90;;
22610;SDS011;11472;45.494;12.142;2022-07-24T04:36:00;5.10;;;3.90;;
22610;SDS011;11472;45.494;12.142;2022-07-24T04:37:00;5.10;;;3.90;;
22610;SDS011;11472;45.494;12.142;2022-07-24T04:38:00;5.10;;;3.90;;
22610;SDS011;11472;45.494;12.142;2022-07-24T04:39:04;5.10;;;3.90;;
22610;SDS011;11472;45.494;12.142;2022-07-24T04:40:00;5.10;;;3.90;;
22610;SDS011;11472;45.494;12.142;2022-07-24T04:41:01;5.10;;;3.90;;
22610;SDS011;11472;45.494;12.142;2022-07-24T04:42:00;5.10;;;3.90;;
22610;SDS011;11472;45.494;12.142;2022-07-24T04:43:00;5.10;;;3.90;;
22610;SDS011;11472;45.494;12.142;2022-07-24T04:44:00;7.80;;;4.20;;
22610;SDS011;11472;45.494;12.142;2022-07-24T04:45:00;7.80;;;4.20;;
22610;SDS011;11472;45.494;12.142;2022-07-24T04:46:00;7.80;;;4.20;;
22610;SDS011;11472;45.494;12.142;2022-07-24T04:47:00;7.80;;;4.20;;
22610;SDS011;11472;45.494;12.142;2022-07-24T04:48:00;7.80;;;4.20;;
22610;SDS011;11472;45.494;12.142;2022-07-24T04:49:00;7.80;;;4.20;;
22610;SDS011;11472;45.494;12.142;2022-07-24T04:50:00;7.80;;;4.20;;
22610;SDS011;11472;45.494;12.142;2022-07-24T04:51:00;7.80;;;4.20;;
22610;SDS011;11472;45.494;12.142;2022-07-24T04:52:00;7.80;;;4.20;;
22610;SDS011;11472;45.494;12.142;2022-07-24T04:53:00;7.80;;;4.20;;
22610;SDS011;11472;45.494;12.142;2022-07-24T04:54:00;7.80;;;4.20;;
22610;SDS011;11472;45.494;12.142;2022-07-24T04:55:00;7.80;;;4.20;;
22610;SDS011;11472;45.494;12.142;2022-07-24T04:56:01;7.80;;;4.20;;
22610;SDS011;11472;45.494;12.142;2022-07-24T04:57:00;7.80;;;4.20;;
22610;SDS011;11472;45.494;12.142;2022-07-24T04:58:00;7.80;;;4.20;;
22610;SDS011;11472;45.494;12.142;2022-07-24T04:59:02;6.20;;;3.90;;
22610;SDS011;11472;45.494;12.142;2022-07-24T05:00:00;6.20;;;3.90;;
22610;SDS011;11472;45.494;12.142;2022-07-24T05:01:00;6.20;;;3.90;;
22610;SDS011;11472;45.494;12.142;2022-07-24T05:02:02;6.20;;;3.90;;
22610;SDS011;11472;45.494;12.142;2022-07-24T05:03:00;6.20;;;3.90;;
22610;SDS011;11472;45.494;12.142;2022-07-24T05:04:00;6.20;;;3.90;;
22610;SDS011;11472;45.494;12.142;2022-07-24T05:05:00;6.20;;;3.90;;
22610;SDS011;11472;45.494;12.142;2022-07-24T05:06:00;6.20;;;3.90;;
22610;SDS011;11472;45.494;12.142;2022-07-24T05:07:01;6.20;;;3.90;;
22610;SDS011;11472;45.494;12.142;2022-07-24T05:08:00;6.20;;;3.90;;
22610;SDS011;11472;45.494;12.142;2022-07-24T05:09:01;6.20;;;3.90;;
22610;SDS011;11472;45.494;12.142;2022-07-24T05:10:00;6.20;;;3.90;;
22610;SDS011;11472;45.494;12.142;2022-07-24T05:11:00;6.20;;;3.90;;
22610;SDS011;11472;45.494;12.142;2022-07-24T05:12:00;6.20;;;3.90;;
22610;SDS011;11472;45.494;12.142;2022-07-24T05:13:03;6.20;;;3.90;;
22610;SDS011;11472;45.494;12.142;2022-07-24T05:14:00;4.40;;;3.70;;
22610;SDS011;11472;45.494;12.142;2022-07-24T05:15:00;4.40;;;3.70;;
22610;SDS011;11472;45.494;12.142;2022-07-24T05:16:00;4.40;;;3.70;;
22610;SDS011;11472;45.494;12.142;2022-07-24T05:17:00;4.40;;;3.70;;
22610;SDS011;11472;45.494;12.142;2022-07-24T05:18:00;4.40;;;3.70;;
22610;SDS011;11472;45.494;12.142;2022-07-24T05:19:00;4.40;;;3.70;;
22610;SDS011;11472;45.494;12.142;2022-07-24T05:20:02;4.40;;;3.70;;
22610;SDS011;11472;45.494;12.142;2022-07-24T05:21:00;4.40;;;3.70;;
22610;SDS011;11472;45.494;12.142;2022-07-24T05:22:00;4.40;;;3.70;;
22610;SDS011;11472;45.494;12.142;2022-07-24T05:23:00;4.40;;;3.70;;
22610;SDS011;11472;45.494;12.142;2022-07-24T05:24:02;4.40;;;3.70;;
22610;SDS011;11472;45.494;12.142;2022-07-24T05:25:00;4.40;;;3.70;;
22610;SDS011;11472;45.494;12.142;2022-07-24T05:26:01;4.40;;;3.70;;
22610;SDS011;11472;45.494;12.142;2022-07-24T05:27:00;4.40;;;3.70;;
22610;SDS011;11472;45.494;12.142;2022-07-24T05:28:01;4.40;;;3.70;;
22610;SDS011;11472;45.494;12.142;2022-07-24T05:29:02;5.60;;;4.10;;
22610;SDS011;11472;45.494;12.142;2022-07-24T05:30:01;5.60;;;4.10;;
22610;SDS011;11472;45.494;12.142;2022-07-24T05:31:00;5.60;;;4.10;;
22610;SDS011;11472;45.494;12.142;2022-07-24T05:32:00;5.60;;;4.10;;
22610;SDS011;11472;45.494;12.142;2022-07-24T05:33:00;5.60;;;4.10;;
22610;SDS011;11472;45.494;12.142;2022-07-24T05:34:02;5.60;;;4.10;;
22610;SDS011;11472;45.494;12.142;2022-07-24T05:35:00;5.60;;;4.10;;
22610;SDS011;11472;45.494;12.142;2022-07-24T05:36:00;5.60;;;4.10;;
22610;SDS011;11472;45.494;12.142;2022-07-24T05:37:00;5.60;;;4.10;;
22610;SDS011;11472;45.494;12.142;2022-07-24T05:38:00;5.60;;;4.10;;
22610;SDS011;11472;45.494;12.142;2022-07-24T05:39:00;5.60;;;4.10;;
22610;SDS011;11472;45.494;12.142;2022-07-24T05:40:00;5.60;;;4.10;;
22610;SDS011;11472;45.494;12.142;2022-07-24T05:41:02;5.60;;;4.10;;
22610;SDS011;11472;45.494;12.142;2022-07-24T05:42:03;5.60;;;4.10;;
22610;SDS011;11472;45.494;12.142;2022-07-24T05:43:00;5.60;;;4.10;;
22610;SDS011;11472;45.494;12.142;2022-07-24T05:44:00;5.10;;;4.20;;
22610;SDS011;11472;45.494;12.142;2022-07-24T05:45:00;5.10;;;4.20;;
22610;SDS011;11472;45.494;12.142;2022-07-24T05:46:00;5.10;;;4.20;;
22610;SDS011;11472;45.494;12.142;2022-07-24T05:47:00;5.10;;;4.20;;
22610;SDS011;11472;45.494;12.142;2022-07-24T05:48:00;5.10;;;4.20;;
22610;SDS011;11472;45.494;12.142;2022-07-24T05:49:00;5.10;;;4.20;;
22610;SDS011;11472;45.494;12.142;2022-07-24T05:50:00;5.10;;;4.20;;
22610;SDS011;11472;45.494;12.142;2022-07-24T05:51:00;5.10;;;4.20;;
22610;SDS011;11472;45.494;12.142;2022-07-24T05:52:02;5.10;;;4.20;;
22610;SDS011;11472;45.494;12.142;2022-07-24T05:53:01;5.10;;;4.20;;
22610;SDS011;11472;45.494;12.142;2022-07-24T05:54:00;5.10;;;4.20;;
22610;SDS011;11472;45.494;12.142;2022-07-24T05:55:00;5.10;;;4.20;;
22610;SDS011;11472;45.494;12.142;2022-07-24T05:56:00;5.10;;;4.20;;